sensor_id;sensor_type;location;lat;lon;timestamp;P1;durP1;ratioP1;P2;durP2;ratioP2
7025;SDS011;3554;42.132;24.786;2023-02-17T00:01:18;57.10;;;32.10;;
7025;SDS011;3554;42.132;24.786;2023-02-17T00:03:46;56.70;;;30.90;;
7025;SDS011;3554;42.132;24.786;2023-02-17T00:06:14;51.50;;;29.93;;
7025;SDS011;3554;42.132;24.786;2023-02-17T00:08:43;54.47;;;29.57;;
7025;SDS011;3554;42.132;24.786;2023-02-17T00:11:10;60.23;;;31.70;;
7025;SDS011;3554;42.132;24.786;2023-02-17T00:13:38;67.13;;;34.43;;
7025;SDS011;3554;42.132;24.786;2023-02-17T00:16:07;50.10;;;32.03;;
7025;SDS011;3554;42.132;24.786;2023-02-17T00:18:34;53.83;;;30.33;;
7025;SDS011;3554;42.132;24.786;2023-02-17T00:21:09;54.20;;;31.83;;
7025;SDS011;3554;42.132;24.786;2023-02-17T00:23:37;59.43;;;33.40;;
7025;SDS011;3554;42.132;24.786;2023-02-17T00:26:04;58.83;;;33.40;;
7025;SDS011;3554;42.132;24.786;2023-02-17T00:28:31;57.60;;;34.27;;
7025;SDS011;3554;42.132;24.786;2023-02-17T00:30:58;64.30;;;33.90;;
7025;SDS011;3554;42.132;24.786;2023-02-17T00:33:26;57.23;;;35.17;;
7025;SDS011;3554;42.132;24.786;2023-02-17T00:35:52;54.47;;;32.03;;
7025;SDS011;3554;42.132;24.786;2023-02-17T00:38:19;55.10;;;34.03;;
7025;SDS011;3554;42.132;24.786;2023-02-17T00:40:46;56.33;;;33.07;;
7025;SDS011;3554;42.132;24.786;2023-02-17T00:43:13;57.53;;;32.77;;
7025;SDS011;3554;42.132;24.786;2023-02-17T00:45:39;56.97;;;33.20;;
7025;SDS011;3554;42.132;24.786;2023-02-17T00:48:06;56.10;;;33.33;;
7025;SDS011;3554;42.132;24.786;2023-02-17T00:50:34;64.10;;;33.97;;
7025;SDS011;3554;42.132;24.786;2023-02-17T00:53:01;69.73;;;35.23;;
7025;SDS011;3554;42.132;24.786;2023-02-17T00:55:28;60.03;;;35.33;;
7025;SDS011;3554;42.132;24.786;2023-02-17T00:57:54;54.10;;;33.03;;
7025;SDS011;3554;42.132;24.786;2023-02-17T01:00:21;62.03;;;35.53;;
7025;SDS011;3554;42.132;24.786;2023-02-17T01:02:48;61.47;;;36.50;;
7025;SDS011;3554;42.132;24.786;2023-02-17T01:05:15;61.07;;;35.20;;
7025;SDS011;3554;42.132;24.786;2023-02-17T01:07:43;57.50;;;33.67;;
7025;SDS011;3554;42.132;24.786;2023-02-17T01:10:10;58.17;;;34.67;;
7025;SDS011;3554;42.132;24.786;2023-02-17T01:12:37;54.33;;;33.60;;
7025;SDS011;3554;42.132;24.786;2023-02-17T01:15:04;61.03;;;33.50;;
7025;SDS011;3554;42.132;24.786;2023-02-17T01:17:32;56.40;;;32.40;;
7025;SDS011;3554;42.132;24.786;2023-02-17T01:19:58;56.60;;;32.50;;
7025;SDS011;3554;42.132;24.786;2023-02-17T01:22:25;57.03;;;34.37;;
7025;SDS011;3554;42.132;24.786;2023-02-17T01:24:53;66.60;;;39.03;;
7025;SDS011;3554;42.132;24.786;2023-02-17T01:27:20;58.20;;;33.43;;
7025;SDS011;3554;42.132;24.786;2023-02-17T01:29:47;63.77;;;35.00;;
7025;SDS011;3554;42.132;24.786;2023-02-17T01:32:13;59.83;;;34.27;;
7025;SDS011;3554;42.132;24.786;2023-02-17T01:34:40;64.10;;;34.47;;
7025;SDS011;3554;42.132;24.786;2023-02-17T01:37:07;63.60;;;34.77;;
7025;SDS011;3554;42.132;24.786;2023-02-17T01:39:34;73.47;;;37.53;;
7025;SDS011;3554;42.132;24.786;2023-02-17T01:42:02;70.33;;;40.13;;
7025;SDS011;3554;42.132;24.786;2023-02-17T01:44:29;62.57;;;37.43;;
7025;SDS011;3554;42.132;24.786;2023-02-17T01:46:57;68.40;;;37.03;;
7025;SDS011;3554;42.132;24.786;2023-02-17T01:49:28;58.53;;;34.50;;
7025;SDS011;3554;42.132;24.786;2023-02-17T01:52:00;65.10;;;36.03;;
7025;SDS011;3554;42.132;24.786;2023-02-17T01:54:33;63.27;;;34.77;;
7025;SDS011;3554;42.132;24.786;2023-02-17T01:57:04;55.70;;;33.17;;
7025;SDS011;3554;42.132;24.786;2023-02-17T01:59:31;57.00;;;33.23;;
7025;SDS011;3554;42.132;24.786;2023-02-17T02:01:59;58.03;;;33.90;;
7025;SDS011;3554;42.132;24.786;2023-02-17T02:04:30;54.33;;;31.97;;
7025;SDS011;3554;42.132;24.786;2023-02-17T02:07:00;61.03;;;33.80;;
7025;SDS011;3554;42.132;24.786;2023-02-17T02:09:29;52.27;;;31.97;;
7025;SDS011;3554;42.132;24.786;2023-02-17T02:11:58;60.87;;;33.57;;
7025;SDS011;3554;42.132;24.786;2023-02-17T02:14:26;63.07;;;34.83;;
7025;SDS011;3554;42.132;24.786;2023-02-17T02:16:55;54.87;;;33.30;;
7025;SDS011;3554;42.132;24.786;2023-02-17T02:19:39;57.73;;;33.43;;
7025;SDS011;3554;42.132;24.786;2023-02-17T02:22:31;61.07;;;33.53;;
7025;SDS011;3554;42.132;24.786;2023-02-17T02:25:28;61.80;;;31.43;;
7025;SDS011;3554;42.132;24.786;2023-02-17T02:28:15;57.23;;;31.03;;
7025;SDS011;3554;42.132;24.786;2023-02-17T02:31:00;59.17;;;33.30;;
7025;SDS011;3554;42.132;24.786;2023-02-17T02:33:40;57.43;;;32.37;;
7025;SDS011;3554;42.132;24.786;2023-02-17T02:36:10;69.77;;;33.47;;
7025;SDS011;3554;42.132;24.786;2023-02-17T02:38:44;57.50;;;32.73;;
7025;SDS011;3554;42.132;24.786;2023-02-17T02:41:15;61.90;;;33.23;;
7025;SDS011;3554;42.132;24.786;2023-02-17T02:43:46;63.37;;;33.53;;
7025;SDS011;3554;42.132;24.786;2023-02-17T02:46:14;60.43;;;33.77;;
7025;SDS011;3554;42.132;24.786;2023-02-17T02:48:43;60.30;;;33.33;;
7025;SDS011;3554;42.132;24.786;2023-02-17T02:51:17;64.70;;;33.00;;
7025;SDS011;3554;42.132;24.786;2023-02-17T02:53:54;58.03;;;32.90;;
7025;SDS011;3554;42.132;24.786;2023-02-17T02:56:39;58.50;;;31.90;;
7025;SDS011;3554;42.132;24.786;2023-02-17T02:59:18;55.80;;;31.27;;
7025;SDS011;3554;42.132;24.786;2023-02-17T03:01:56;55.47;;;31.03;;
7025;SDS011;3554;42.132;24.786;2023-02-17T03:04:33;61.23;;;32.40;;
7025;SDS011;3554;42.132;24.786;2023-02-17T03:07:05;54.90;;;31.87;;
7025;SDS011;3554;42.132;24.786;2023-02-17T03:09:36;59.93;;;32.17;;
7025;SDS011;3554;42.132;24.786;2023-02-17T03:12:04;58.70;;;31.33;;
7025;SDS011;3554;42.132;24.786;2023-02-17T03:14:33;55.73;;;29.43;;
7025;SDS011;3554;42.132;24.786;2023-02-17T03:17:02;50.10;;;28.90;;
7025;SDS011;3554;42.132;24.786;2023-02-17T03:19:29;52.87;;;29.70;;
7025;SDS011;3554;42.132;24.786;2023-02-17T03:21:58;55.83;;;29.83;;
7025;SDS011;3554;42.132;24.786;2023-02-17T03:24:30;53.77;;;29.63;;
7025;SDS011;3554;42.132;24.786;2023-02-17T03:26:57;50.10;;;28.03;;
7025;SDS011;3554;42.132;24.786;2023-02-17T03:29:24;62.10;;;30.40;;
7025;SDS011;3554;42.132;24.786;2023-02-17T03:31:51;55.03;;;29.67;;
7025;SDS011;3554;42.132;24.786;2023-02-17T03:34:18;52.43;;;29.13;;
7025;SDS011;3554;42.132;24.786;2023-02-17T03:36:44;50.93;;;28.57;;
7025;SDS011;3554;42.132;24.786;2023-02-17T03:39:12;49.43;;;28.63;;
7025;SDS011;3554;42.132;24.786;2023-02-17T03:41:39;50.83;;;27.77;;
7025;SDS011;3554;42.132;24.786;2023-02-17T03:44:06;49.67;;;28.63;;
7025;SDS011;3554;42.132;24.786;2023-02-17T03:46:33;54.73;;;29.37;;
7025;SDS011;3554;42.132;24.786;2023-02-17T03:49:00;54.03;;;29.53;;
7025;SDS011;3554;42.132;24.786;2023-02-17T03:51:26;50.67;;;29.07;;
7025;SDS011;3554;42.132;24.786;2023-02-17T03:53:53;49.13;;;28.47;;
7025;SDS011;3554;42.132;24.786;2023-02-17T03:56:21;51.33;;;31.00;;
7025;SDS011;3554;42.132;24.786;2023-02-17T03:58:48;56.17;;;29.60;;
7025;SDS011;3554;42.132;24.786;2023-02-17T04:01:15;46.37;;;27.07;;
7025;SDS011;3554;42.132;24.786;2023-02-17T04:03:42;47.70;;;26.83;;
7025;SDS011;3554;42.132;24.786;2023-02-17T04:06:09;46.53;;;26.10;;
7025;SDS011;3554;42.132;24.786;2023-02-17T04:08:36;46.93;;;26.70;;
7025;SDS011;3554;42.132;24.786;2023-02-17T04:11:04;44.30;;;25.83;;
7025;SDS011;3554;42.132;24.786;2023-02-17T04:13:35;42.27;;;25.57;;
7025;SDS011;3554;42.132;24.786;2023-02-17T04:16:03;50.10;;;28.37;;
7025;SDS011;3554;42.132;24.786;2023-02-17T04:18:30;49.83;;;27.20;;
7025;SDS011;3554;42.132;24.786;2023-02-17T04:20:58;58.90;;;29.40;;
7025;SDS011;3554;42.132;24.786;2023-02-17T04:23:24;56.50;;;29.33;;
7025;SDS011;3554;42.132;24.786;2023-02-17T04:25:51;53.40;;;29.50;;
7025;SDS011;3554;42.132;24.786;2023-02-17T04:28:18;66.57;;;33.73;;
7025;SDS011;3554;42.132;24.786;2023-02-17T04:30:48;54.23;;;32.40;;
7025;SDS011;3554;42.132;24.786;2023-02-17T04:33:16;61.33;;;34.70;;
7025;SDS011;3554;42.132;24.786;2023-02-17T04:35:43;60.83;;;32.60;;
7025;SDS011;3554;42.132;24.786;2023-02-17T04:38:09;66.50;;;31.67;;
7025;SDS011;3554;42.132;24.786;2023-02-17T04:40:36;49.37;;;29.33;;
7025;SDS011;3554;42.132;24.786;2023-02-17T04:43:03;54.33;;;30.43;;
7025;SDS011;3554;42.132;24.786;2023-02-17T04:45:30;59.73;;;34.03;;
7025;SDS011;3554;42.132;24.786;2023-02-17T04:47:58;61.50;;;34.07;;
7025;SDS011;3554;42.132;24.786;2023-02-17T04:50:26;68.10;;;32.73;;
7025;SDS011;3554;42.132;24.786;2023-02-17T04:52:52;60.83;;;33.10;;
7025;SDS011;3554;42.132;24.786;2023-02-17T04:55:19;55.93;;;32.47;;
7025;SDS011;3554;42.132;24.786;2023-02-17T04:57:46;59.57;;;33.03;;
7025;SDS011;3554;42.132;24.786;2023-02-17T05:00:13;59.53;;;33.33;;
7025;SDS011;3554;42.132;24.786;2023-02-17T05:02:40;60.87;;;32.47;;
7025;SDS011;3554;42.132;24.786;2023-02-17T05:05:08;65.40;;;33.37;;
7025;SDS011;3554;42.132;24.786;2023-02-17T05:07:39;56.53;;;33.20;;
7025;SDS011;3554;42.132;24.786;2023-02-17T05:10:06;70.50;;;32.77;;
7025;SDS011;3554;42.132;24.786;2023-02-17T05:12:34;57.97;;;31.77;;
7025;SDS011;3554;42.132;24.786;2023-02-17T05:15:02;57.83;;;32.23;;
7025;SDS011;3554;42.132;24.786;2023-02-17T05:17:30;77.43;;;35.53;;
7025;SDS011;3554;42.132;24.786;2023-02-17T05:19:57;62.87;;;33.77;;
7025;SDS011;3554;42.132;24.786;2023-02-17T05:22:27;68.70;;;34.30;;
7025;SDS011;3554;42.132;24.786;2023-02-17T05:24:54;60.37;;;33.63;;
7025;SDS011;3554;42.132;24.786;2023-02-17T05:27:21;64.10;;;35.03;;
7025;SDS011;3554;42.132;24.786;2023-02-17T05:29:48;64.23;;;35.00;;
7025;SDS011;3554;42.132;24.786;2023-02-17T05:32:15;65.20;;;35.17;;
7025;SDS011;3554;42.132;24.786;2023-02-17T05:34:42;62.80;;;35.37;;
7025;SDS011;3554;42.132;24.786;2023-02-17T05:37:09;67.27;;;33.80;;
7025;SDS011;3554;42.132;24.786;2023-02-17T05:39:37;62.40;;;33.73;;
7025;SDS011;3554;42.132;24.786;2023-02-17T05:42:04;63.90;;;34.57;;
7025;SDS011;3554;42.132;24.786;2023-02-17T05:44:31;73.33;;;34.63;;
7025;SDS011;3554;42.132;24.786;2023-02-17T05:46:58;67.47;;;33.80;;
7025;SDS011;3554;42.132;24.786;2023-02-17T05:49:25;62.70;;;34.17;;
7025;SDS011;3554;42.132;24.786;2023-02-17T05:51:51;66.63;;;33.40;;
7025;SDS011;3554;42.132;24.786;2023-02-17T05:54:18;55.80;;;32.33;;
7025;SDS011;3554;42.132;24.786;2023-02-17T05:56:46;55.10;;;33.90;;
7025;SDS011;3554;42.132;24.786;2023-02-17T05:59:13;70.00;;;32.77;;
7025;SDS011;3554;42.132;24.786;2023-02-17T06:01:40;56.83;;;30.30;;
7025;SDS011;3554;42.132;24.786;2023-02-17T06:04:07;72.57;;;34.03;;
7025;SDS011;3554;42.132;24.786;2023-02-17T06:06:33;63.27;;;33.57;;
7025;SDS011;3554;42.132;24.786;2023-02-17T06:09:00;57.87;;;33.33;;
7025;SDS011;3554;42.132;24.786;2023-02-17T06:11:27;60.70;;;34.00;;
7025;SDS011;3554;42.132;24.786;2023-02-17T06:13:55;54.13;;;32.60;;
7025;SDS011;3554;42.132;24.786;2023-02-17T06:16:22;57.63;;;32.27;;
7025;SDS011;3554;42.132;24.786;2023-02-17T06:18:49;67.47;;;34.53;;
7025;SDS011;3554;42.132;24.786;2023-02-17T06:21:15;61.13;;;32.93;;
7025;SDS011;3554;42.132;24.786;2023-02-17T06:23:42;71.50;;;34.53;;
7025;SDS011;3554;42.132;24.786;2023-02-17T06:26:09;62.57;;;32.77;;
7025;SDS011;3554;42.132;24.786;2023-02-17T06:28:35;60.83;;;33.67;;
7025;SDS011;3554;42.132;24.786;2023-02-17T06:31:04;58.47;;;32.73;;
7025;SDS011;3554;42.132;24.786;2023-02-17T06:33:30;65.63;;;32.97;;
7025;SDS011;3554;42.132;24.786;2023-02-17T06:35:57;55.37;;;31.53;;
7025;SDS011;3554;42.132;24.786;2023-02-17T06:38:24;59.27;;;32.00;;
7025;SDS011;3554;42.132;24.786;2023-02-17T06:40:51;63.97;;;31.40;;
7025;SDS011;3554;42.132;24.786;2023-02-17T06:43:18;51.83;;;29.70;;
7025;SDS011;3554;42.132;24.786;2023-02-17T06:45:45;54.10;;;28.80;;
7025;SDS011;3554;42.132;24.786;2023-02-17T06:48:13;65.33;;;32.87;;
7025;SDS011;3554;42.132;24.786;2023-02-17T06:50:40;64.27;;;31.87;;
7025;SDS011;3554;42.132;24.786;2023-02-17T06:53:07;54.20;;;30.43;;
7025;SDS011;3554;42.132;24.786;2023-02-17T06:55:33;55.33;;;32.57;;
7025;SDS011;3554;42.132;24.786;2023-02-17T06:58:01;62.03;;;31.67;;
7025;SDS011;3554;42.132;24.786;2023-02-17T07:00:28;53.03;;;30.07;;
7025;SDS011;3554;42.132;24.786;2023-02-17T07:02:55;61.63;;;30.73;;
7025;SDS011;3554;42.132;24.786;2023-02-17T07:05:23;55.10;;;30.90;;
7025;SDS011;3554;42.132;24.786;2023-02-17T07:07:50;46.93;;;29.27;;
7025;SDS011;3554;42.132;24.786;2023-02-17T07:10:17;55.07;;;31.13;;
7025;SDS011;3554;42.132;24.786;2023-02-17T07:12:44;62.00;;;33.03;;
7025;SDS011;3554;42.132;24.786;2023-02-17T07:15:11;63.87;;;33.43;;
7025;SDS011;3554;42.132;24.786;2023-02-17T07:17:39;62.80;;;35.00;;
7025;SDS011;3554;42.132;24.786;2023-02-17T07:20:06;57.47;;;33.03;;
7025;SDS011;3554;42.132;24.786;2023-02-17T07:22:35;58.93;;;32.27;;
7025;SDS011;3554;42.132;24.786;2023-02-17T07:25:01;69.07;;;34.53;;
7025;SDS011;3554;42.132;24.786;2023-02-17T07:27:28;57.83;;;33.70;;
7025;SDS011;3554;42.132;24.786;2023-02-17T07:29:55;65.93;;;34.97;;
7025;SDS011;3554;42.132;24.786;2023-02-17T07:32:22;61.67;;;34.83;;
7025;SDS011;3554;42.132;24.786;2023-02-17T07:34:49;72.07;;;34.43;;
7025;SDS011;3554;42.132;24.786;2023-02-17T07:37:16;77.00;;;36.10;;
7025;SDS011;3554;42.132;24.786;2023-02-17T07:39:45;72.70;;;36.23;;
7025;SDS011;3554;42.132;24.786;2023-02-17T07:42:12;84.27;;;35.20;;
7025;SDS011;3554;42.132;24.786;2023-02-17T07:44:39;87.33;;;35.93;;
7025;SDS011;3554;42.132;24.786;2023-02-17T07:47:06;65.47;;;33.63;;
7025;SDS011;3554;42.132;24.786;2023-02-17T07:49:33;63.93;;;35.30;;
7025;SDS011;3554;42.132;24.786;2023-02-17T07:51:59;66.10;;;34.53;;
7025;SDS011;3554;42.132;24.786;2023-02-17T07:54:26;74.27;;;35.30;;
7025;SDS011;3554;42.132;24.786;2023-02-17T07:56:54;65.20;;;35.60;;
7025;SDS011;3554;42.132;24.786;2023-02-17T07:59:21;53.60;;;32.07;;
7025;SDS011;3554;42.132;24.786;2023-02-17T08:01:48;59.53;;;35.00;;
7025;SDS011;3554;42.132;24.786;2023-02-17T08:04:15;69.20;;;33.73;;
7025;SDS011;3554;42.132;24.786;2023-02-17T08:06:42;56.10;;;32.67;;
7025;SDS011;3554;42.132;24.786;2023-02-17T08:09:09;63.83;;;35.90;;
7025;SDS011;3554;42.132;24.786;2023-02-17T08:11:55;75.87;;;36.80;;
7025;SDS011;3554;42.132;24.786;2023-02-17T08:14:39;60.60;;;33.93;;
7025;SDS011;3554;42.132;24.786;2023-02-17T08:17:06;60.20;;;34.00;;
7025;SDS011;3554;42.132;24.786;2023-02-17T08:19:33;61.30;;;32.67;;
7025;SDS011;3554;42.132;24.786;2023-02-17T08:22:00;58.70;;;31.40;;
7025;SDS011;3554;42.132;24.786;2023-02-17T08:24:27;52.27;;;30.43;;
7025;SDS011;3554;42.132;24.786;2023-02-17T08:26:56;50.97;;;31.20;;
7025;SDS011;3554;42.132;24.786;2023-02-17T08:29:22;51.67;;;30.67;;
7025;SDS011;3554;42.132;24.786;2023-02-17T08:31:50;51.97;;;29.20;;
7025;SDS011;3554;42.132;24.786;2023-02-17T08:34:18;51.17;;;29.10;;
7025;SDS011;3554;42.132;24.786;2023-02-17T08:36:45;43.57;;;28.17;;
7025;SDS011;3554;42.132;24.786;2023-02-17T08:39:12;55.87;;;30.43;;
7025;SDS011;3554;42.132;24.786;2023-02-17T08:41:41;55.90;;;28.90;;
7025;SDS011;3554;42.132;24.786;2023-02-17T08:44:10;43.20;;;27.77;;
7025;SDS011;3554;42.132;24.786;2023-02-17T08:46:39;58.47;;;30.47;;
7025;SDS011;3554;42.132;24.786;2023-02-17T08:49:07;55.63;;;30.70;;
7025;SDS011;3554;42.132;24.786;2023-02-17T08:51:34;63.70;;;30.60;;
7025;SDS011;3554;42.132;24.786;2023-02-17T08:54:01;52.60;;;30.33;;
7025;SDS011;3554;42.132;24.786;2023-02-17T08:56:30;56.57;;;30.10;;
7025;SDS011;3554;42.132;24.786;2023-02-17T08:58:57;63.13;;;31.03;;
7025;SDS011;3554;42.132;24.786;2023-02-17T09:01:25;49.90;;;30.60;;
7025;SDS011;3554;42.132;24.786;2023-02-17T09:03:52;57.97;;;31.17;;
7025;SDS011;3554;42.132;24.786;2023-02-17T09:06:21;58.90;;;32.30;;
7025;SDS011;3554;42.132;24.786;2023-02-17T09:08:48;67.33;;;32.80;;
7025;SDS011;3554;42.132;24.786;2023-02-17T09:11:15;50.80;;;29.30;;
7025;SDS011;3554;42.132;24.786;2023-02-17T09:13:44;54.83;;;29.73;;
7025;SDS011;3554;42.132;24.786;2023-02-17T09:16:11;57.50;;;29.30;;
7025;SDS011;3554;42.132;24.786;2023-02-17T09:18:39;57.07;;;30.17;;
7025;SDS011;3554;42.132;24.786;2023-02-17T09:21:06;51.10;;;31.10;;
7025;SDS011;3554;42.132;24.786;2023-02-17T09:23:33;49.63;;;30.73;;
7025;SDS011;3554;42.132;24.786;2023-02-17T09:26:01;64.80;;;30.83;;
7025;SDS011;3554;42.132;24.786;2023-02-17T09:28:29;59.67;;;31.43;;
7025;SDS011;3554;42.132;24.786;2023-02-17T09:30:57;53.33;;;29.60;;
7025;SDS011;3554;42.132;24.786;2023-02-17T09:33:24;51.23;;;31.63;;
7025;SDS011;3554;42.132;24.786;2023-02-17T09:35:52;56.73;;;31.77;;
7025;SDS011;3554;42.132;24.786;2023-02-17T09:38:19;58.47;;;25.20;;
7025;SDS011;3554;42.132;24.786;2023-02-17T09:40:47;44.00;;;21.43;;
7025;SDS011;3554;42.132;24.786;2023-02-17T09:43:16;38.80;;;22.10;;
7025;SDS011;3554;42.132;24.786;2023-02-17T09:45:46;35.67;;;18.00;;
7025;SDS011;3554;42.132;24.786;2023-02-17T09:48:19;20.90;;;13.07;;
7025;SDS011;3554;42.132;24.786;2023-02-17T09:50:54;17.77;;;11.10;;
7025;SDS011;3554;42.132;24.786;2023-02-17T09:53:24;12.73;;;7.40;;
7025;SDS011;3554;42.132;24.786;2023-02-17T09:55:56;6.57;;;5.97;;
7025;SDS011;3554;42.132;24.786;2023-02-17T09:58:27;7.50;;;5.10;;
7025;SDS011;3554;42.132;24.786;2023-02-17T10:00:59;14.60;;;6.30;;
7025;SDS011;3554;42.132;24.786;2023-02-17T10:03:29;15.83;;;7.40;;
7025;SDS011;3554;42.132;24.786;2023-02-17T10:06:03;11.77;;;6.73;;
7025;SDS011;3554;42.132;24.786;2023-02-17T10:08:37;8.93;;;7.23;;
7025;SDS011;3554;42.132;24.786;2023-02-17T10:11:13;25.87;;;6.80;;
7025;SDS011;3554;42.132;24.786;2023-02-17T10:13:47;4.93;;;3.97;;
7025;SDS011;3554;42.132;24.786;2023-02-17T10:16:19;29.23;;;7.30;;
7025;SDS011;3554;42.132;24.786;2023-02-17T10:18:49;20.27;;;10.50;;
7025;SDS011;3554;42.132;24.786;2023-02-17T10:21:25;17.37;;;6.13;;
7025;SDS011;3554;42.132;24.786;2023-02-17T10:23:54;8.63;;;5.90;;
7025;SDS011;3554;42.132;24.786;2023-02-17T10:26:23;5.83;;;5.33;;
7025;SDS011;3554;42.132;24.786;2023-02-17T10:28:59;19.23;;;6.27;;
7025;SDS011;3554;42.132;24.786;2023-02-17T10:31:35;24.63;;;6.23;;
7025;SDS011;3554;42.132;24.786;2023-02-17T10:34:10;5.03;;;4.50;;
7025;SDS011;3554;42.132;24.786;2023-02-17T10:36:50;11.00;;;5.13;;
7025;SDS011;3554;42.132;24.786;2023-02-17T10:39:26;32.40;;;8.60;;
7025;SDS011;3554;42.132;24.786;2023-02-17T10:42:01;12.77;;;4.87;;
7025;SDS011;3554;42.132;24.786;2023-02-17T10:44:28;10.40;;;6.77;;
7025;SDS011;3554;42.132;24.786;2023-02-17T10:47:02;33.40;;;8.23;;
7025;SDS011;3554;42.132;24.786;2023-02-17T10:49:30;19.90;;;5.80;;
7025;SDS011;3554;42.132;24.786;2023-02-17T10:52:04;8.13;;;4.87;;
7025;SDS011;3554;42.132;24.786;2023-02-17T10:54:37;9.17;;;5.00;;
7025;SDS011;3554;42.132;24.786;2023-02-17T10:57:07;18.47;;;5.87;;
7025;SDS011;3554;42.132;24.786;2023-02-17T10:59:38;8.10;;;4.17;;
7025;SDS011;3554;42.132;24.786;2023-02-17T11:02:13;8.17;;;4.50;;
7025;SDS011;3554;42.132;24.786;2023-02-17T11:04:44;5.97;;;4.53;;
7025;SDS011;3554;42.132;24.786;2023-02-17T11:07:15;8.50;;;4.27;;
7025;SDS011;3554;42.132;24.786;2023-02-17T11:09:47;10.03;;;4.57;;
7025;SDS011;3554;42.132;24.786;2023-02-17T11:12:26;4.73;;;4.33;;
7025;SDS011;3554;42.132;24.786;2023-02-17T11:14:55;4.63;;;4.20;;
7025;SDS011;3554;42.132;24.786;2023-02-17T11:17:23;11.47;;;5.00;;
7025;SDS011;3554;42.132;24.786;2023-02-17T11:19:55;8.23;;;4.67;;
7025;SDS011;3554;42.132;24.786;2023-02-17T11:22:33;6.70;;;4.37;;
7025;SDS011;3554;42.132;24.786;2023-02-17T11:25:03;23.10;;;6.00;;
7025;SDS011;3554;42.132;24.786;2023-02-17T11:27:32;5.60;;;3.57;;
7025;SDS011;3554;42.132;24.786;2023-02-17T11:30:07;4.23;;;3.83;;
7025;SDS011;3554;42.132;24.786;2023-02-17T11:32:39;3.93;;;3.63;;
7025;SDS011;3554;42.132;24.786;2023-02-17T11:35:16;5.90;;;5.30;;
7025;SDS011;3554;42.132;24.786;2023-02-17T11:37:49;6.07;;;5.07;;
7025;SDS011;3554;42.132;24.786;2023-02-17T11:40:21;9.30;;;5.23;;
7025;SDS011;3554;42.132;24.786;2023-02-17T11:42:54;5.83;;;5.33;;
7025;SDS011;3554;42.132;24.786;2023-02-17T11:45:22;22.57;;;6.20;;
7025;SDS011;3554;42.132;24.786;2023-02-17T11:47:55;4.63;;;4.33;;
7025;SDS011;3554;42.132;24.786;2023-02-17T11:50:33;3.80;;;3.53;;
7025;SDS011;3554;42.132;24.786;2023-02-17T11:56:08;5.73;;;3.10;;
7025;SDS011;3554;42.132;24.786;2023-02-17T11:58:48;7.43;;;3.67;;
7025;SDS011;3554;42.132;24.786;2023-02-17T12:01:32;21.83;;;3.90;;
7025;SDS011;3554;42.132;24.786;2023-02-17T12:04:23;5.43;;;3.03;;
7025;SDS011;3554;42.132;24.786;2023-02-17T12:06:57;3.60;;;3.30;;
7025;SDS011;3554;42.132;24.786;2023-02-17T12:09:52;3.07;;;2.87;;
7025;SDS011;3554;42.132;24.786;2023-02-17T12:12:25;4.93;;;2.70;;
7025;SDS011;3554;42.132;24.786;2023-02-17T12:15:05;3.30;;;3.00;;
7025;SDS011;3554;42.132;24.786;2023-02-17T12:17:49;8.50;;;3.40;;
7025;SDS011;3554;42.132;24.786;2023-02-17T12:20:30;6.40;;;3.40;;
7025;SDS011;3554;42.132;24.786;2023-02-17T12:23:14;5.93;;;3.17;;
7025;SDS011;3554;42.132;24.786;2023-02-17T12:25:53;4.27;;;2.50;;
7025;SDS011;3554;42.132;24.786;2023-02-17T12:28:33;13.97;;;3.57;;
7025;SDS011;3554;42.132;24.786;2023-02-17T12:31:08;3.77;;;2.87;;
7025;SDS011;3554;42.132;24.786;2023-02-17T12:33:48;5.63;;;3.17;;
7025;SDS011;3554;42.132;24.786;2023-02-17T12:36:25;8.80;;;3.90;;
7025;SDS011;3554;42.132;24.786;2023-02-17T12:38:56;6.60;;;4.63;;
7025;SDS011;3554;42.132;24.786;2023-02-17T12:41:29;3.10;;;2.90;;
7025;SDS011;3554;42.132;24.786;2023-02-17T12:44:00;8.13;;;2.87;;
7025;SDS011;3554;42.132;24.786;2023-02-17T12:46:34;3.03;;;2.60;;
7025;SDS011;3554;42.132;24.786;2023-02-17T12:49:05;3.77;;;2.50;;
7025;SDS011;3554;42.132;24.786;2023-02-17T12:51:38;2.67;;;2.27;;
7025;SDS011;3554;42.132;24.786;2023-02-17T12:54:11;3.47;;;3.07;;
7025;SDS011;3554;42.132;24.786;2023-02-17T12:56:51;4.03;;;2.93;;
7025;SDS011;3554;42.132;24.786;2023-02-17T12:59:24;5.10;;;3.10;;
7025;SDS011;3554;42.132;24.786;2023-02-17T13:01:58;4.23;;;3.43;;
7025;SDS011;3554;42.132;24.786;2023-02-17T13:04:27;4.63;;;4.23;;
7025;SDS011;3554;42.132;24.786;2023-02-17T13:07:08;4.40;;;4.00;;
7025;SDS011;3554;42.132;24.786;2023-02-17T13:09:43;8.73;;;4.37;;
7025;SDS011;3554;42.132;24.786;2023-02-17T13:12:27;5.77;;;3.60;;
7025;SDS011;3554;42.132;24.786;2023-02-17T13:14:58;20.10;;;4.67;;
7025;SDS011;3554;42.132;24.786;2023-02-17T13:17:27;9.70;;;3.20;;
7025;SDS011;3554;42.132;24.786;2023-02-17T13:20:01;13.73;;;3.10;;
7025;SDS011;3554;42.132;24.786;2023-02-17T13:22:31;8.10;;;2.87;;
7025;SDS011;3554;42.132;24.786;2023-02-17T13:24:58;3.93;;;2.33;;
7025;SDS011;3554;42.132;24.786;2023-02-17T13:27:31;6.20;;;3.10;;
7025;SDS011;3554;42.132;24.786;2023-02-17T13:29:59;7.37;;;3.33;;
7025;SDS011;3554;42.132;24.786;2023-02-17T13:32:28;3.40;;;3.00;;
7025;SDS011;3554;42.132;24.786;2023-02-17T13:34:58;16.97;;;4.13;;
7025;SDS011;3554;42.132;24.786;2023-02-17T13:37:37;7.70;;;3.80;;
7025;SDS011;3554;42.132;24.786;2023-02-17T13:43:08;8.17;;;3.70;;
7025;SDS011;3554;42.132;24.786;2023-02-17T13:45:46;4.10;;;3.80;;
7025;SDS011;3554;42.132;24.786;2023-02-17T13:48:21;4.80;;;3.40;;
7025;SDS011;3554;42.132;24.786;2023-02-17T13:50:50;3.60;;;3.20;;
7025;SDS011;3554;42.132;24.786;2023-02-17T13:53:19;4.00;;;3.70;;
7025;SDS011;3554;42.132;24.786;2023-02-17T13:55:56;7.80;;;4.47;;
7025;SDS011;3554;42.132;24.786;2023-02-17T13:58:26;3.43;;;3.23;;
7025;SDS011;3554;42.132;24.786;2023-02-17T14:00:54;4.33;;;3.80;;
7025;SDS011;3554;42.132;24.786;2023-02-17T14:03:23;5.60;;;2.90;;
7025;SDS011;3554;42.132;24.786;2023-02-17T14:05:51;4.43;;;3.43;;
7025;SDS011;3554;42.132;24.786;2023-02-17T14:08:22;7.93;;;3.13;;
7025;SDS011;3554;42.132;24.786;2023-02-17T14:10:55;4.17;;;3.87;;
7025;SDS011;3554;42.132;24.786;2023-02-17T14:13:22;5.50;;;2.73;;
7025;SDS011;3554;42.132;24.786;2023-02-17T14:15:52;3.63;;;2.90;;
7025;SDS011;3554;42.132;24.786;2023-02-17T14:18:28;3.47;;;2.83;;
7025;SDS011;3554;42.132;24.786;2023-02-17T14:21:00;8.60;;;3.67;;
7025;SDS011;3554;42.132;24.786;2023-02-17T14:23:39;7.70;;;3.60;;
7025;SDS011;3554;42.132;24.786;2023-02-17T14:26:13;6.20;;;3.70;;
7025;SDS011;3554;42.132;24.786;2023-02-17T14:28:53;9.87;;;4.17;;
7025;SDS011;3554;42.132;24.786;2023-02-17T14:31:22;4.37;;;3.57;;
7025;SDS011;3554;42.132;24.786;2023-02-17T14:33:57;4.07;;;3.77;;
7025;SDS011;3554;42.132;24.786;2023-02-17T14:36:26;16.17;;;4.00;;
7025;SDS011;3554;42.132;24.786;2023-02-17T14:38:56;9.27;;;4.13;;
7025;SDS011;3554;42.132;24.786;2023-02-17T14:41:24;9.33;;;4.70;;
7025;SDS011;3554;42.132;24.786;2023-02-17T14:43:51;6.60;;;4.07;;
7025;SDS011;3554;42.132;24.786;2023-02-17T14:46:18;12.57;;;5.37;;
7025;SDS011;3554;42.132;24.786;2023-02-17T14:48:46;7.93;;;4.50;;
7025;SDS011;3554;42.132;24.786;2023-02-17T14:51:14;11.53;;;4.17;;
7025;SDS011;3554;42.132;24.786;2023-02-17T14:53:43;5.33;;;4.33;;
7025;SDS011;3554;42.132;24.786;2023-02-17T14:56:13;9.20;;;4.27;;
7025;SDS011;3554;42.132;24.786;2023-02-17T14:58:43;6.00;;;4.53;;
7025;SDS011;3554;42.132;24.786;2023-02-17T15:01:10;6.90;;;4.17;;
7025;SDS011;3554;42.132;24.786;2023-02-17T15:03:39;5.83;;;4.47;;
7025;SDS011;3554;42.132;24.786;2023-02-17T15:06:10;5.87;;;5.17;;